Airfield :
LOGIN :

Register | Disclaimer

   EN    FR    IT 

 










Legend :    VFR   Marginal VFR   IFR   Intensive IFR   Very Intensive IFR
Visi :
Ceiling :
>= 8 km
>= 3000ft
5 to 8 km
1000 to 3000 ft
1500m to 5 km
500 to 1000 ft
800 to 1500m
200 to 500 ft
< 800m
< 200 ft
Symbols :   Thunderstorms  Fog  Heavy snow  Heavy precipitations  Wind > 20 kt
SIGMETs :     Misc.  Thunderstorms  Icing  Turbulence  Mountain Waves  Volcanic Ashes






- Airport Elevation : 46 ft
- IATA code : SNN


EINN - Shannon

CURRENT METAR :
  • 212330Z 23019KT 7000 -SHRA FEW011 FEW018CB BKN030 08/06 Q0987 RESHRA TEMPO SHRA

EXPIRED METARs :
  • 212300Z 20008KT 9999 FEW011 FEW018CB BKN024 09/07 Q0987 TEMPO SHRA
  • 212230Z 21015KT 7000 -SHRA FEW018CB BKN024 09/06 Q0988 TEMPO SHRA
  • 212200Z 21011KT 7000 -SHRA FEW018CB BKN028 09/06 Q0989 TEMPO SHRA
  • 212130Z 21013KT 9999 FEW018CB SCT035 09/06 Q0989 TEMPO SHRA
  • 212100Z 22012KT 9999 FEW018CB BKN035 09/06 Q0990 TEMPO SHRA
  • 212030Z 21012KT 9999 FEW018CB BKN036 10/06 Q0990 TEMPO SHRA
  • 212000Z 17013KT 9999 FEW018CB SCT038 09/06 Q0991 NOSIG
  • 211930Z 20009KT 9999 FEW018CB 09/07 Q0992 NOSIG
  • 211900Z 21009KT 9999 FEW030 09/07 Q0992 NOSIG
  • 211830Z 22012KT 9999 FEW016 FEW018CB 10/07 Q0993 NOSIG

TAF TAF EINN
Valid from the 21 at 18:00 until the 22 at 18:00 UTC


211700Z 2118/2218 23015KT 9999 FEW020 BKN040
TEMPO 2118/2201 24018G29KT -SHRA FEW018CB
PROB40
TEMPO 2122/2201 4000 SHRA BKN012 SCT018CB
PROB30
TEMPO 2122/2207 -SHRAGS FEW018CB
BECMG 2210/2212 26013KT
TEMPO 2210/2218 25018G32KT -SHRA FEW018CB
PROB30
TEMPO 2216/2218 -SHRAGS SCT018CB



MET'MAP, your aeronautical weather chart ! - Copyright ORBIFLY December 2007 - Disclaimer

ORBIFLY MET'MAP TEAM :

Programming & Development : Alexandra Zaïnal
Original concept : Baudouin d'Aumeries
Technical & hardware support : Manuel Goepfert
Assistance : Marc-Olivier Méhu




SOURCES & CREDITS :

   NOAA